createdAt,value
2018-04-22T00:01:49.723Z,16.25
2018-04-22T00:04:17.747Z,16.65
2018-04-22T00:06:45.743Z,15.63
2018-04-22T00:09:13.797Z,15.32
2018-04-22T00:11:41.811Z,18.48
2018-04-22T00:14:09.810Z,15.75
2018-04-22T00:16:38.595Z,15.00
2018-04-22T00:19:06.594Z,15.32
2018-04-22T00:21:35.377Z,14.68
2018-04-22T00:24:03.392Z,19.10
2018-04-22T00:26:31.396Z,14.48
2018-04-22T00:28:59.436Z,15.80
2018-04-22T00:31:27.431Z,14.27
2018-04-22T00:33:56.216Z,15.73
2018-04-22T00:36:24.221Z,18.73
2018-04-22T00:38:52.255Z,14.73
2018-04-22T00:41:20.264Z,16.37
2018-04-22T00:43:48.267Z,16.45
2018-04-22T00:46:16.291Z,16.48
2018-04-22T00:48:44.310Z,16.00
2018-04-22T00:51:12.323Z,16.05
2018-04-22T00:53:52.366Z,14.80
2018-04-22T00:56:20.460Z,16.37
2018-04-22T00:58:49.267Z,15.35
2018-04-22T01:01:17.329Z,16.27
2018-04-22T01:03:45.401Z,15.88
2018-04-22T01:06:13.434Z,16.00
2018-04-22T01:08:41.499Z,14.32
2018-04-22T01:11:09.543Z,15.50
2018-04-22T01:13:37.619Z,17.08
2018-04-22T01:16:05.663Z,17.95
2018-04-22T01:18:34.187Z,16.20
2018-04-22T01:21:02.256Z,15.77
2018-04-22T01:23:31.051Z,17.60
2018-04-22T01:25:59.926Z,15.50
2018-04-22T01:28:27.950Z,15.07
2018-04-22T01:30:56.015Z,15.93
2018-04-22T01:33:24.827Z,18.33
2018-04-22T01:35:53.660Z,17.30
2018-04-22T01:38:21.701Z,17.45
2018-04-22T01:40:50.519Z,17.33
2018-04-22T01:43:18.564Z,18.08
2018-04-22T01:45:47.408Z,17.80
2018-04-22T01:48:16.235Z,17.45
2018-04-22T01:50:44.280Z,19.15
2018-04-22T01:53:13.110Z,17.30
2018-04-22T01:55:41.167Z,19.55
2018-04-22T01:58:11.512Z,16.37
2018-04-22T02:00:42.246Z,15.52
2018-04-22T02:03:11.079Z,18.50
2018-04-22T02:05:39.155Z,16.85
2018-04-22T02:08:07.193Z,15.73
2018-04-22T02:10:35.539Z,15.85
2018-04-22T02:13:03.599Z,15.70
2018-04-22T02:15:32.404Z,16.60
2018-04-22T02:18:01.244Z,16.40
2018-04-22T02:20:29.312Z,16.05
2018-04-22T02:22:57.359Z,15.40
2018-04-22T02:25:25.423Z,17.70
2018-04-22T02:27:54.986Z,16.25
2018-04-22T02:30:23.819Z,16.73
2018-04-22T02:32:51.932Z,15.63
2018-04-22T02:35:20.754Z,16.45
2018-04-22T02:37:49.738Z,16.33
2018-04-22T02:40:18.692Z,15.18
2018-04-22T02:42:46.763Z,15.50
2018-04-22T02:45:14.819Z,15.15
2018-04-22T02:47:42.879Z,15.27
2018-04-22T02:50:10.953Z,18.23
2018-04-22T02:52:39.023Z,16.35
2018-04-22T02:55:07.067Z,16.85
2018-04-22T02:57:35.896Z,17.00
2018-04-22T03:00:03.952Z,16.50
2018-04-22T03:02:32.779Z,15.75
2018-04-22T03:05:00.836Z,16.15
2018-04-22T03:07:29.777Z,18.65
2018-04-22T03:09:57.840Z,15.25
2018-04-22T03:12:25.907Z,17.30
2018-04-22T03:14:54.731Z,22.48
2018-04-22T03:17:22.927Z,15.95
2018-04-22T03:19:50.990Z,14.60
2018-04-22T03:22:19.871Z,14.87
2018-04-22T03:24:47.883Z,14.87
2018-04-22T03:27:16.700Z,14.00
2018-04-22T03:29:44.756Z,14.35
2018-04-22T03:32:13.591Z,16.87
2018-04-22T03:34:41.626Z,16.60
2018-04-22T03:37:09.682Z,18.05
2018-04-22T03:39:37.729Z,18.70
2018-04-22T03:42:05.791Z,14.90
2018-04-22T03:44:33.844Z,16.50
2018-04-22T03:47:02.311Z,18.77
2018-04-22T03:49:30.379Z,15.68
2018-04-22T03:51:58.431Z,17.05
2018-04-22T03:54:27.255Z,15.30
2018-04-22T03:56:56.072Z,16.37
2018-04-22T03:59:24.749Z,15.70
2018-04-22T04:01:53.576Z,18.50
2018-04-22T04:04:21.636Z,18.83
2018-04-22T04:06:50.467Z,15.70
2018-04-22T04:09:18.512Z,16.58
2018-04-22T04:11:46.583Z,16.83
2018-04-22T04:14:14.624Z,17.37
2018-04-22T04:16:42.687Z,16.90
2018-04-22T04:19:23.008Z,15.32
2018-04-22T04:22:02.999Z,19.02
2018-04-22T04:24:43.893Z,15.73
2018-04-22T04:27:23.946Z,20.20
2018-04-22T04:29:51.990Z,16.85
2018-04-22T04:32:20.051Z,17.48
2018-04-22T04:34:48.103Z,18.40
2018-04-22T04:37:16.152Z,18.75
2018-04-22T04:39:44.197Z,16.55
2018-04-22T04:42:12.258Z,21.73
2018-04-22T04:44:41.091Z,15.68
2018-04-22T04:47:09.191Z,17.73
2018-04-22T04:49:37.414Z,16.35
2018-04-22T04:52:05.532Z,17.92
2018-04-22T04:54:34.361Z,16.55
2018-04-22T04:57:02.406Z,17.58
2018-04-22T04:59:30.464Z,16.83
2018-04-22T05:01:58.531Z,16.20
2018-04-22T05:04:26.719Z,17.40
2018-04-22T05:06:54.791Z,17.25
2018-04-22T05:09:22.835Z,17.50
2018-04-22T05:11:51.660Z,15.85
2018-04-22T05:14:20.111Z,17.25
2018-04-22T05:16:48.183Z,17.00
2018-04-22T05:19:17.763Z,17.48
2018-04-22T05:21:46.045Z,18.70
2018-04-22T05:24:14.110Z,17.45
2018-04-22T05:26:42.932Z,19.10
2018-04-22T05:29:10.999Z,20.05
2018-04-22T05:31:39.035Z,21.37
2018-04-22T05:34:07.134Z,16.98
2018-04-22T05:36:35.176Z,16.85
2018-04-22T05:39:03.708Z,15.32
2018-04-22T05:41:31.767Z,21.08
2018-04-22T05:43:59.812Z,22.73
2018-04-22T05:46:28.640Z,19.55
2018-04-22T05:48:56.687Z,19.15
2018-04-22T05:51:25.511Z,20.60
2018-04-22T05:53:53.713Z,22.10
2018-04-22T05:56:21.763Z,19.60
2018-04-22T05:58:50.604Z,18.50
2018-04-22T06:01:18.655Z,21.10
2018-04-22T06:03:47.480Z,16.20
2018-04-22T06:06:15.514Z,20.08
2018-04-22T06:08:45.088Z,17.25
2018-04-22T06:11:13.164Z,20.23
2018-04-22T06:13:41.199Z,18.05
2018-04-22T06:16:10.766Z,21.90
2018-04-22T06:18:38.825Z,17.80
2018-04-22T06:21:08.659Z,17.98
2018-04-22T06:23:37.463Z,17.83
2018-04-22T06:26:05.528Z,21.80
2018-04-22T06:28:33.611Z,17.85
2018-04-22T06:31:01.655Z,18.02
2018-04-22T06:33:29.716Z,19.10
2018-04-22T06:35:57.775Z,17.80
2018-04-22T06:38:26.599Z,17.55
2018-04-22T06:40:54.807Z,20.00
2018-04-22T06:43:22.867Z,17.60
2018-04-22T06:45:50.942Z,19.75
2018-04-22T06:48:19.755Z,16.52
2018-04-22T06:50:47.831Z,15.25
2018-04-22T06:53:15.914Z,16.77
2018-04-22T06:55:44.735Z,16.05
2018-04-22T06:58:12.776Z,16.00
2018-04-22T07:00:40.832Z,16.55
2018-04-22T07:03:09.363Z,16.77
2018-04-22T07:05:38.183Z,17.10
2018-04-22T07:08:07.017Z,14.40
2018-04-22T07:10:35.051Z,15.60
2018-04-22T07:13:03.884Z,14.82
2018-04-22T07:15:31.937Z,13.93
2018-04-22T07:18:00.767Z,14.73
2018-04-22T07:20:28.827Z,14.27
2018-04-22T07:22:57.642Z,15.18
2018-04-22T07:25:26.474Z,14.20
2018-04-22T07:27:54.520Z,16.20
2018-04-22T07:30:23.352Z,13.82
2018-04-22T07:32:51.391Z,13.43
2018-04-22T07:35:20.222Z,13.10
2018-04-22T07:37:48.339Z,13.05
2018-04-22T07:40:16.392Z,12.73
2018-04-22T07:42:44.462Z,14.90
2018-04-22T07:45:13.279Z,14.18
2018-04-22T07:47:41.346Z,14.95
2018-04-22T07:50:09.519Z,12.70
2018-04-22T07:52:38.359Z,11.80
2018-04-22T07:55:06.420Z,12.20
2018-04-22T07:57:35.259Z,16.60
2018-04-22T08:00:03.340Z,12.20
2018-04-22T08:02:31.383Z,12.48
2018-04-22T08:04:59.463Z,13.20
2018-04-22T08:07:28.267Z,10.68
2018-04-22T08:09:56.454Z,10.77
2018-04-22T08:12:24.490Z,13.68
2018-04-22T08:14:52.562Z,13.32
2018-04-22T08:17:20.631Z,13.10
2018-04-22T08:19:48.684Z,12.20
2018-04-22T08:22:17.521Z,11.88
2018-04-22T08:24:45.684Z,10.43
2018-04-22T08:27:14.507Z,11.55
2018-04-22T08:29:42.550Z,10.85
2018-04-22T08:32:10.627Z,11.18
2018-04-22T08:34:38.700Z,10.82
2018-04-22T08:37:06.768Z,10.80
2018-04-22T08:39:34.822Z,10.57
2018-04-22T08:42:02.883Z,10.90
2018-04-22T08:44:31.722Z,12.15
2018-04-22T08:46:59.763Z,9.90
2018-04-22T08:49:28.594Z,10.27
2018-04-22T08:51:56.638Z,11.27
2018-04-22T08:54:24.698Z,9.90
2018-04-22T08:56:52.770Z,9.95
2018-04-22T08:59:20.828Z,9.97
2018-04-22T09:01:49.665Z,13.10
2018-04-22T09:04:17.711Z,9.77
2018-04-22T09:06:45.793Z,10.30
2018-04-22T09:09:14.603Z,10.60
2018-04-22T09:11:42.668Z,11.60
2018-04-22T09:14:11.483Z,10.10
2018-04-22T09:16:40.307Z,10.53
2018-04-22T09:19:08.375Z,9.90
2018-04-22T09:21:36.511Z,12.50
2018-04-22T09:24:04.766Z,11.90
2018-04-22T09:26:32.820Z,11.47
2018-04-22T09:29:01.641Z,10.63
2018-04-22T09:31:29.704Z,10.70
2018-04-22T09:33:58.535Z,9.37
2018-04-22T09:36:26.566Z,10.50
2018-04-22T09:38:54.630Z,10.43
2018-04-22T09:41:22.681Z,10.00
2018-04-22T09:43:50.744Z,12.77
2018-04-22T09:46:19.573Z,14.67
2018-04-22T09:48:47.635Z,10.83
2018-04-22T09:51:16.471Z,14.43
2018-04-22T09:53:44.510Z,10.30
2018-04-22T09:56:13.340Z,10.27
2018-04-22T09:58:41.389Z,9.70
2018-04-22T10:01:09.443Z,9.67
2018-04-22T10:03:37.495Z,9.43
2018-04-22T10:06:05.559Z,7.90
2018-04-22T10:08:35.101Z,8.47
2018-04-22T10:11:03.151Z,8.83
2018-04-22T10:13:31.978Z,10.13
2018-04-22T10:16:00.032Z,9.53
2018-04-22T10:18:28.094Z,10.30
2018-04-22T10:20:57.642Z,9.50
2018-04-22T10:23:26.463Z,9.60
2018-04-22T10:25:54.502Z,9.10
2018-04-22T10:28:22.563Z,9.20
2018-04-22T10:30:50.631Z,8.37
2018-04-22T10:33:18.671Z,8.17
2018-04-22T10:35:47.495Z,9.30
2018-04-22T10:38:15.539Z,7.90
2018-04-22T10:40:43.600Z,8.63
2018-04-22T10:43:11.642Z,7.97
2018-04-22T10:45:40.434Z,8.77
2018-04-22T10:48:09.259Z,7.40
2018-04-22T10:50:37.293Z,7.90
2018-04-22T10:53:05.362Z,7.63
2018-04-22T10:55:33.399Z,6.47
2018-04-22T10:58:01.466Z,7.27
2018-04-22T11:00:30.267Z,6.67
2018-04-22T11:02:59.087Z,6.47
2018-04-22T11:05:27.884Z,5.97
2018-04-22T11:07:55.945Z,9.30
2018-04-22T11:10:23.998Z,8.73
2018-04-22T11:12:52.047Z,5.63
2018-04-22T11:15:20.107Z,5.17
2018-04-22T11:17:48.907Z,8.30
2018-04-22T11:20:16.955Z,8.50
2018-04-22T11:22:44.997Z,5.70
2018-04-22T11:25:13.059Z,6.47
2018-04-22T11:27:41.092Z,4.90
2018-04-22T11:30:09.146Z,7.03
2018-04-22T11:32:37.949Z,5.67
2018-04-22T11:35:06.014Z,5.37
2018-04-22T11:37:34.846Z,5.70
2018-04-22T11:40:02.879Z,6.00
2018-04-22T11:42:30.943Z,6.30
2018-04-22T11:44:58.971Z,7.47
2018-04-22T11:47:27.784Z,6.50
2018-04-22T11:49:56.587Z,8.27
2018-04-22T11:52:25.416Z,7.50
2018-04-22T11:54:53.519Z,5.50
2018-04-22T11:57:21.568Z,6.93
2018-04-22T11:59:49.640Z,5.47
2018-04-22T12:02:18.460Z,6.40
2018-04-22T12:04:46.524Z,7.33
2018-04-22T12:07:14.585Z,5.70
2018-04-22T12:09:42.630Z,6.80
2018-04-22T12:12:10.687Z,5.77
2018-04-22T12:14:38.755Z,5.90
2018-04-22T12:17:06.787Z,6.43
2018-04-22T12:19:34.823Z,7.20
2018-04-22T12:22:03.648Z,6.40
2018-04-22T12:24:31.690Z,7.33
2018-04-22T12:26:59.744Z,5.70
2018-04-22T12:29:27.808Z,6.10
2018-04-22T12:31:55.844Z,6.50
2018-04-22T12:34:23.898Z,8.17
2018-04-22T12:36:51.927Z,7.10
2018-04-22T12:39:20.752Z,7.20
2018-04-22T12:41:49.194Z,7.40
2018-04-22T12:44:17.251Z,8.63
2018-04-22T12:46:45.295Z,7.80
2018-04-22T12:49:14.122Z,5.50
2018-04-22T12:51:42.260Z,5.60
2018-04-22T12:54:10.310Z,5.93
2018-04-22T12:56:38.368Z,6.10
2018-04-22T12:59:06.419Z,6.57
2018-04-22T13:01:35.243Z,5.07
2018-04-22T13:04:03.280Z,5.50
2018-04-22T13:06:31.338Z,5.50
2018-04-22T13:08:59.367Z,6.20
2018-04-22T13:11:27.422Z,9.43
2018-04-22T13:13:55.495Z,5.47
2018-04-22T13:16:23.536Z,5.00
2018-04-22T13:18:52.368Z,5.53
2018-04-22T13:21:20.406Z,4.53
2018-04-22T13:23:48.471Z,5.00
2018-04-22T13:26:16.502Z,6.03
2018-04-22T13:28:44.555Z,5.90
2018-04-22T13:31:12.611Z,4.67
2018-04-22T13:33:40.903Z,4.73
2018-04-22T13:36:08.955Z,4.73
2018-04-22T13:38:36.990Z,5.37
2018-04-22T13:41:05.823Z,4.27
2018-04-22T13:43:33.863Z,4.20
2018-04-22T13:46:01.924Z,4.73
2018-04-22T13:48:29.979Z,4.03
2018-04-22T13:50:58.015Z,4.07
2018-04-22T13:53:26.075Z,4.33
2018-04-22T13:55:54.106Z,3.67
2018-04-22T13:58:22.166Z,5.33
2018-04-22T14:00:50.213Z,3.27
2018-04-22T14:03:18.258Z,3.10
2018-04-22T14:05:47.078Z,3.43
2018-04-22T14:08:16.187Z,3.30
2018-04-22T14:10:44.277Z,4.20
2018-04-22T14:13:12.333Z,4.90
2018-04-22T14:15:41.147Z,4.63
2018-04-22T14:18:09.947Z,3.70
2018-04-22T14:20:38.780Z,5.83
2018-04-22T14:23:06.843Z,3.10
2018-04-22T14:25:34.902Z,3.80
2018-04-22T14:28:02.963Z,3.27
2018-04-22T14:30:31.123Z,3.50
2018-04-22T14:32:59.183Z,3.60
2018-04-22T14:35:27.767Z,4.23
2018-04-22T14:37:55.835Z,4.10
2018-04-22T14:40:23.919Z,4.20
2018-04-22T14:42:52.728Z,4.10
2018-04-22T14:45:33.556Z,5.47
2018-04-22T14:48:01.583Z,3.30
2018-04-22T14:50:29.647Z,5.20
2018-04-22T14:52:57.774Z,4.53
2018-04-22T14:55:26.812Z,5.13
2018-04-22T14:57:54.840Z,3.77
2018-04-22T15:00:22.900Z,3.67
2018-04-22T15:02:50.984Z,4.33
2018-04-22T15:05:19.068Z,3.57
2018-04-22T15:07:47.087Z,3.10
2018-04-22T15:10:15.912Z,3.40
2018-04-22T15:12:44.735Z,3.10
2018-04-22T15:15:12.778Z,2.80
2018-04-22T15:17:40.835Z,3.63
2018-04-22T15:20:08.908Z,3.20
2018-04-22T15:22:36.945Z,4.27
2018-04-22T15:25:05.787Z,3.23
2018-04-22T15:27:33.835Z,2.80
2018-04-22T15:30:01.909Z,4.80
2018-04-22T15:32:30.703Z,3.47
2018-04-22T15:34:59.532Z,5.17
2018-04-22T15:37:27.591Z,3.93
2018-04-22T15:39:56.411Z,3.57
2018-04-22T15:42:24.477Z,3.27
2018-04-22T15:44:52.520Z,3.67
2018-04-22T15:47:20.568Z,4.00
2018-04-22T15:49:48.604Z,5.50
2018-04-22T15:52:16.663Z,3.93
2018-04-22T15:54:44.734Z,2.50
2018-04-22T15:57:12.779Z,3.50
2018-04-22T15:59:41.603Z,4.60
2018-04-22T16:02:09.655Z,5.67
2018-04-22T16:04:37.709Z,3.77
2018-04-22T16:07:05.744Z,5.70
2018-04-22T16:09:34.567Z,4.23
2018-04-22T16:12:02.612Z,4.63
2018-04-22T16:14:30.734Z,2.80
2018-04-22T16:16:58.719Z,5.63
2018-04-22T16:19:26.780Z,3.47
2018-04-22T16:21:55.591Z,3.60
2018-04-22T16:24:24.401Z,3.00
2018-04-22T16:26:52.448Z,2.90
2018-04-22T16:29:20.500Z,3.00
2018-04-22T16:31:48.551Z,7.37
2018-04-22T16:34:16.622Z,3.40
2018-04-22T16:36:45.437Z,3.33
2018-04-22T16:39:13.483Z,3.93
2018-04-22T16:41:41.539Z,6.33
2018-04-22T16:44:09.583Z,3.67
2018-04-22T16:46:37.648Z,4.50
2018-04-22T16:49:06.451Z,2.97
2018-04-22T16:51:35.276Z,6.57
2018-04-22T16:54:03.438Z,6.23
2018-04-22T16:56:31.476Z,3.00
2018-04-22T16:58:59.536Z,3.67
2018-04-22T17:01:27.574Z,5.50
2018-04-22T17:03:55.631Z,3.43
2018-04-22T17:06:23.667Z,3.33
2018-04-22T17:08:51.736Z,4.33
2018-04-22T17:11:20.683Z,2.77
2018-04-22T17:13:48.734Z,3.70
2018-04-22T17:16:16.948Z,4.23
2018-04-22T17:18:45.028Z,2.93
2018-04-22T17:21:14.129Z,4.27
2018-04-22T17:23:42.940Z,3.17
2018-04-22T17:26:10.994Z,3.73
2018-04-22T17:28:39.828Z,2.63
2018-04-22T17:31:07.871Z,2.57
2018-04-22T17:33:36.707Z,4.80
2018-04-22T17:36:04.740Z,2.73
2018-04-22T17:38:32.803Z,4.27
2018-04-22T17:41:00.900Z,3.07
2018-04-22T17:43:28.972Z,3.07
2018-04-22T17:45:57.035Z,5.20
2018-04-22T17:48:25.071Z,9.30
2018-04-22T17:50:53.915Z,3.17
2018-04-22T17:53:21.985Z,3.20
2018-04-22T17:55:50.810Z,3.13
2018-04-22T17:58:19.634Z,3.80
2018-04-22T18:00:47.687Z,4.60
2018-04-22T18:03:17.491Z,7.80
2018-04-22T18:05:46.327Z,5.80
2018-04-22T18:08:14.355Z,4.60
2018-04-22T18:10:42.419Z,7.05
2018-04-22T18:13:10.472Z,2.90
2018-04-22T18:15:38.519Z,4.03
2018-04-22T18:18:08.277Z,4.43
2018-04-22T18:20:37.076Z,5.93
2018-04-22T18:23:05.144Z,5.47
2018-04-22T18:25:33.959Z,9.45
2018-04-22T18:28:02.786Z,3.30
2018-04-22T18:30:31.759Z,3.50
2018-04-22T18:33:02.524Z,3.87
2018-04-22T18:35:30.567Z,4.53
2018-04-22T18:37:59.405Z,4.07
2018-04-22T18:40:27.466Z,5.65
2018-04-22T18:42:56.276Z,4.78
2018-04-22T18:45:25.126Z,4.10
2018-04-22T18:47:53.171Z,4.30
2018-04-22T18:50:22.000Z,6.47
2018-04-22T18:52:50.055Z,4.40
2018-04-22T18:55:18.885Z,4.40
2018-04-22T18:57:46.936Z,4.28
2018-04-22T19:00:15.787Z,4.53
2018-04-22T19:02:43.840Z,4.20
2018-04-22T19:05:11.891Z,9.05
2018-04-22T19:07:39.943Z,7.10
2018-04-22T19:10:08.035Z,5.50
2018-04-22T19:12:37.103Z,4.70
2018-04-22T19:15:05.580Z,5.82
2018-04-22T19:17:34.404Z,4.80
2018-04-22T19:20:02.478Z,4.82
2018-04-22T19:22:30.531Z,4.62
2018-04-22T19:24:58.656Z,6.57
2018-04-22T19:27:26.702Z,7.15
2018-04-22T19:29:54.778Z,5.18
2018-04-22T19:32:22.827Z,7.07
2018-04-22T19:34:50.939Z,8.43
2018-04-22T19:37:19.059Z,5.95
2018-04-22T19:39:47.153Z,5.30
2018-04-22T19:42:15.987Z,4.90
2018-04-22T19:44:44.039Z,9.02
2018-04-22T19:47:12.110Z,7.15
2018-04-22T19:49:40.922Z,6.00
2018-04-22T19:52:09.759Z,4.55
2018-04-22T19:54:37.815Z,6.12
2018-04-22T19:57:05.892Z,6.85
2018-04-22T19:59:34.979Z,5.68
2018-04-22T20:02:04.022Z,7.95
2018-04-22T20:04:32.111Z,5.28
2018-04-22T20:07:00.911Z,5.22
2018-04-22T20:09:28.982Z,5.43
2018-04-22T20:11:57.824Z,5.75
2018-04-22T20:14:25.866Z,5.40
2018-04-22T20:16:53.982Z,6.03
2018-04-22T20:19:22.020Z,8.43
2018-04-22T20:21:50.909Z,6.60
2018-04-22T20:24:18.965Z,6.68
2018-04-22T20:26:47.047Z,6.10
2018-04-22T20:29:15.848Z,5.87
2018-04-22T20:31:43.888Z,5.12
2018-04-22T20:34:12.721Z,5.70
2018-04-22T20:36:40.782Z,8.88
2018-04-22T20:39:09.615Z,7.65
2018-04-22T20:41:37.635Z,5.40
2018-04-22T20:44:05.704Z,5.85
2018-04-22T20:46:33.741Z,5.57
2018-04-22T20:49:01.803Z,6.00
2018-04-22T20:51:30.623Z,7.78
2018-04-22T20:53:58.679Z,6.40
2018-04-22T20:56:26.739Z,5.65
2018-04-22T20:58:54.775Z,6.00
2018-04-22T21:01:22.849Z,6.20
2018-04-22T21:03:51.667Z,5.97
2018-04-22T21:06:19.740Z,8.43
2018-04-22T21:08:48.589Z,6.20
2018-04-22T21:11:16.636Z,15.48
2018-04-22T21:13:44.700Z,5.37
2018-04-22T21:16:13.518Z,7.80
2018-04-22T21:18:41.573Z,9.75
2018-04-22T21:21:09.666Z,5.72
2018-04-22T21:23:37.795Z,6.07
2018-04-22T21:26:05.856Z,9.38
2018-04-22T21:28:34.713Z,6.62
2018-04-22T21:31:02.719Z,6.70
2018-04-22T21:33:30.772Z,6.50
2018-04-22T21:35:58.806Z,6.80
2018-04-22T21:38:26.871Z,7.40
2018-04-22T21:40:55.411Z,6.45
2018-04-22T21:43:23.435Z,5.78
2018-04-22T21:45:51.498Z,6.12
2018-04-22T21:48:19.543Z,8.02
2018-04-22T21:50:47.610Z,8.00
2018-04-22T21:53:16.411Z,5.75
2018-04-22T21:55:44.919Z,6.65
2018-04-22T21:58:12.985Z,6.22
2018-04-22T22:00:41.787Z,6.85
2018-04-22T22:03:10.611Z,10.93
2018-04-22T22:05:38.651Z,7.35
2018-04-22T22:08:06.709Z,7.70
2018-04-22T22:10:34.743Z,6.15
2018-04-22T22:13:03.567Z,6.65
2018-04-22T22:15:31.628Z,6.12
2018-04-22T22:17:59.668Z,6.00
2018-04-22T22:20:27.719Z,6.03
2018-04-22T22:22:56.542Z,6.07
2018-04-22T22:25:24.599Z,5.82
2018-04-22T22:27:53.415Z,8.10
2018-04-22T22:30:21.471Z,6.55
2018-04-22T22:32:49.568Z,7.72
2018-04-22T22:35:18.409Z,7.37
2018-04-22T22:37:46.451Z,7.20
2018-04-22T22:40:15.276Z,6.75
2018-04-22T22:42:43.320Z,7.75
2018-04-22T22:45:11.383Z,5.90
2018-04-22T22:47:39.430Z,6.90
2018-04-22T22:50:07.487Z,6.90
2018-04-22T22:52:35.548Z,7.30
2018-04-22T22:55:05.108Z,8.05
2018-04-22T22:57:33.919Z,6.87
2018-04-22T23:00:01.969Z,7.55
2018-04-22T23:02:30.036Z,10.48
2018-04-22T23:04:58.089Z,6.45
2018-04-22T23:07:26.132Z,7.15
2018-04-22T23:09:54.973Z,7.85
2018-04-22T23:12:23.947Z,6.82
2018-04-22T23:14:52.766Z,10.27
2018-04-22T23:17:20.824Z,6.82
2018-04-22T23:19:48.885Z,6.60
2018-04-22T23:22:16.946Z,7.25
2018-04-22T23:24:44.979Z,6.45
2018-04-22T23:27:13.799Z,6.85
2018-04-22T23:29:41.852Z,8.00
2018-04-22T23:32:10.155Z,6.32
2018-04-22T23:34:38.966Z,7.55
2018-04-22T23:37:07.022Z,7.57
2018-04-22T23:39:35.059Z,6.10
2018-04-22T23:42:03.116Z,6.50
2018-04-22T23:44:31.919Z,6.53
2018-04-22T23:47:00.247Z,7.30
2018-04-22T23:49:28.280Z,7.53
2018-04-22T23:51:57.102Z,6.20
2018-04-22T23:54:25.143Z,7.40
2018-04-22T23:56:53.196Z,6.57
2018-04-22T23:59:21.266Z,6.62
